createdAt,value
2023-05-05T00:02:02.475Z,13.04
2023-05-05T00:04:28.813Z,12.97
2023-05-05T00:06:55.153Z,12.88
2023-05-05T00:09:21.538Z,12.84
2023-05-05T00:11:47.858Z,12.79
2023-05-05T00:14:14.287Z,12.71
2023-05-05T00:16:40.645Z,12.61
2023-05-05T00:19:07.032Z,12.59
2023-05-05T00:21:33.411Z,12.47
2023-05-05T00:23:59.783Z,12.27
2023-05-05T00:26:26.094Z,12.20
2023-05-05T00:28:52.483Z,12.14
2023-05-05T00:31:18.793Z,12.13
2023-05-05T00:33:45.156Z,12.12
2023-05-05T00:36:11.572Z,12.13
2023-05-05T00:38:37.911Z,12.09
2023-05-05T00:41:04.389Z,12.13
2023-05-05T00:43:30.721Z,12.05
2023-05-05T00:46:02.048Z,12.14
2023-05-05T00:48:30.397Z,12.09
2023-05-05T00:50:56.919Z,12.09
2023-05-05T00:53:23.289Z,11.98
2023-05-05T00:55:49.815Z,11.99
2023-05-05T00:58:16.813Z,11.95
2023-05-05T01:00:43.132Z,11.92
2023-05-05T01:03:09.662Z,11.91
2023-05-05T01:05:55.710Z,11.87
2023-05-05T01:08:37.318Z,11.96
2023-05-05T01:11:17.199Z,11.97
2023-05-05T01:14:14.356Z,11.93
2023-05-05T01:16:50.978Z,11.83
2023-05-05T01:19:35.895Z,11.81
2023-05-05T01:22:06.956Z,11.70
2023-05-05T01:24:55.782Z,11.69
2023-05-05T01:27:47.508Z,11.68
2023-05-05T01:30:29.121Z,11.65
2023-05-05T01:33:03.709Z,11.56
2023-05-05T01:35:37.936Z,11.65
2023-05-05T01:38:21.145Z,11.55
2023-05-05T01:40:57.502Z,11.58
2023-05-05T01:43:27.783Z,11.61
2023-05-05T01:45:55.715Z,11.60
2023-05-05T01:48:23.455Z,11.52
2023-05-05T01:50:52.785Z,11.48
2023-05-05T01:53:22.305Z,11.52
2023-05-05T01:55:50.442Z,11.50
2023-05-05T01:58:17.377Z,11.43
2023-05-05T02:00:44.390Z,11.35
2023-05-05T02:03:13.733Z,11.38
2023-05-05T02:05:41.642Z,11.36
2023-05-05T02:08:09.416Z,11.42
2023-05-05T02:10:37.985Z,11.49
2023-05-05T02:13:04.868Z,11.45
2023-05-05T02:15:31.712Z,11.49
2023-05-05T02:18:00.148Z,11.52
2023-05-05T02:20:28.018Z,11.54
2023-05-05T02:22:54.454Z,11.53
2023-05-05T02:25:21.539Z,11.47
2023-05-05T02:27:49.191Z,11.54
2023-05-05T02:30:19.650Z,11.53
2023-05-05T02:32:51.514Z,11.50
2023-05-05T02:35:22.364Z,11.53
2023-05-05T02:37:56.088Z,11.57
2023-05-05T02:40:26.226Z,11.58
2023-05-05T02:42:55.807Z,11.64
2023-05-05T02:45:24.751Z,11.65
2023-05-05T02:47:51.069Z,11.63
2023-05-05T02:50:17.896Z,11.67
2023-05-05T02:52:45.668Z,11.73
2023-05-05T02:55:12.863Z,11.73
2023-05-05T02:58:07.868Z,11.79
2023-05-05T03:00:41.187Z,11.74
2023-05-05T03:03:37.139Z,11.82
2023-05-05T03:06:19.569Z,11.80
2023-05-05T03:09:13.885Z,11.81
2023-05-05T03:11:54.993Z,11.76
2023-05-05T03:14:22.107Z,11.73
2023-05-05T03:16:49.317Z,11.74
2023-05-05T03:19:20.185Z,11.67
2023-05-05T03:21:47.581Z,11.64
2023-05-05T03:24:13.908Z,11.60
2023-05-05T03:26:40.279Z,11.47
2023-05-05T03:29:06.743Z,11.42
2023-05-05T03:31:33.360Z,11.37
2023-05-05T03:33:59.717Z,11.30
2023-05-05T03:36:27.859Z,11.24
2023-05-05T03:38:55.598Z,11.21
2023-05-05T03:41:22.797Z,11.17
2023-05-05T03:43:49.405Z,11.14
2023-05-05T03:46:15.979Z,11.16
2023-05-05T03:48:42.958Z,11.12
2023-05-05T03:51:09.378Z,11.03
2023-05-05T03:53:35.905Z,11.13
2023-05-05T03:56:02.253Z,11.00
2023-05-05T03:58:28.579Z,11.08
2023-05-05T04:00:54.930Z,11.07
2023-05-05T04:03:21.375Z,11.02
2023-05-05T04:05:47.964Z,11.06
2023-05-05T04:08:14.309Z,11.12
2023-05-05T04:10:40.677Z,11.17
2023-05-05T04:13:06.985Z,11.10
2023-05-05T04:15:33.355Z,11.09
2023-05-05T04:17:59.786Z,11.15
2023-05-05T04:20:26.250Z,11.09
2023-05-05T04:22:52.825Z,11.10
2023-05-05T04:25:19.236Z,11.06
2023-05-05T04:27:45.594Z,10.98
2023-05-05T04:30:12.947Z,11.08
2023-05-05T04:32:39.275Z,11.02
2023-05-05T04:35:06.061Z,11.07
2023-05-05T04:37:32.388Z,11.06
2023-05-05T04:39:58.765Z,11.10
2023-05-05T04:42:25.113Z,11.20
2023-05-05T04:44:51.463Z,11.18
2023-05-05T04:47:17.780Z,11.30
2023-05-05T04:49:44.118Z,11.35
2023-05-05T04:52:12.327Z,11.47
2023-05-05T04:54:38.724Z,11.62
2023-05-05T04:57:05.144Z,11.70
2023-05-05T04:59:31.446Z,11.77
2023-05-05T05:01:57.826Z,11.86
2023-05-05T05:04:25.286Z,11.97
2023-05-05T05:06:51.631Z,12.00
2023-05-05T05:09:18.023Z,12.13
2023-05-05T05:11:44.413Z,12.30
2023-05-05T05:14:10.783Z,12.43
2023-05-05T05:16:37.822Z,12.71
2023-05-05T05:19:04.228Z,12.97
2023-05-05T05:21:30.546Z,13.20
2023-05-05T05:23:57.031Z,13.64
2023-05-05T05:26:23.396Z,14.14
2023-05-05T05:28:49.687Z,14.60
2023-05-05T05:31:16.053Z,14.94
2023-05-05T05:33:42.345Z,15.18
2023-05-05T05:36:08.862Z,15.47
2023-05-05T05:38:35.207Z,15.97
2023-05-05T05:41:05.479Z,16.69
2023-05-05T05:43:31.825Z,17.58
2023-05-05T05:45:58.486Z,18.50
2023-05-05T05:48:24.898Z,19.50
2023-05-05T05:50:51.253Z,20.39
2023-05-05T05:53:17.695Z,21.22
2023-05-05T05:55:46.150Z,22.01
2023-05-05T05:58:12.523Z,22.65
2023-05-05T06:00:38.826Z,23.24
2023-05-05T06:03:05.306Z,23.68
2023-05-05T06:05:32.280Z,24.16
2023-05-05T06:07:58.604Z,24.57
2023-05-05T06:10:27.373Z,25.06
2023-05-05T06:12:54.805Z,25.67
2023-05-05T06:15:21.158Z,26.29
2023-05-05T06:17:47.502Z,26.82
2023-05-05T06:20:13.918Z,27.37
2023-05-05T06:22:40.261Z,27.80
2023-05-05T06:25:07.056Z,28.22
2023-05-05T06:27:33.412Z,28.44
2023-05-05T06:29:59.730Z,28.69
2023-05-05T06:32:26.162Z,28.90
2023-05-05T06:34:52.476Z,29.14
2023-05-05T06:37:18.784Z,29.36
2023-05-05T06:39:45.129Z,29.61
2023-05-05T06:42:11.460Z,29.78
2023-05-05T06:44:37.778Z,29.96
2023-05-05T06:47:04.191Z,30.25
2023-05-05T06:49:30.565Z,30.44
2023-05-05T06:51:56.906Z,30.52
2023-05-05T06:54:23.354Z,30.66
2023-05-05T06:56:49.675Z,30.69
2023-05-05T06:59:16.023Z,30.70
2023-05-05T07:01:42.373Z,30.76
2023-05-05T07:04:08.716Z,30.71
2023-05-05T07:06:35.127Z,30.47
2023-05-05T07:09:01.475Z,30.45
2023-05-05T07:11:27.792Z,30.41
2023-05-05T07:13:54.136Z,30.55
2023-05-05T07:16:20.520Z,30.69
2023-05-05T07:18:46.895Z,30.64
2023-05-05T07:21:13.234Z,30.66
2023-05-05T07:23:39.568Z,30.57
2023-05-05T07:26:06.041Z,30.51
2023-05-05T07:28:32.354Z,30.41
2023-05-05T07:30:58.648Z,30.41
2023-05-05T07:33:24.954Z,30.36
2023-05-05T07:35:51.347Z,30.29
2023-05-05T07:38:17.658Z,30.44
2023-05-05T07:40:44.038Z,30.60
2023-05-05T07:43:10.372Z,30.91
2023-05-05T07:45:36.737Z,31.14
2023-05-05T07:48:03.317Z,31.35
2023-05-05T07:50:29.680Z,31.58
2023-05-05T07:53:02.452Z,31.47
2023-05-05T07:55:39.788Z,31.41
2023-05-05T07:58:06.104Z,31.58
2023-05-05T08:00:32.484Z,31.73
2023-05-05T08:02:58.893Z,31.75
2023-05-05T08:05:25.233Z,31.15
2023-05-05T08:07:51.573Z,30.63
2023-05-05T08:10:17.956Z,30.45
2023-05-05T08:12:44.350Z,30.45
2023-05-05T08:15:11.205Z,30.63
2023-05-05T08:17:48.176Z,30.49
2023-05-05T08:20:15.941Z,30.06
2023-05-05T08:22:42.597Z,30.07
2023-05-05T08:25:09.838Z,29.78
2023-05-05T08:27:37.681Z,29.56
2023-05-05T08:30:04.868Z,29.68
2023-05-05T08:32:31.908Z,29.62
2023-05-05T08:34:58.243Z,29.72
2023-05-05T08:37:24.547Z,29.35
2023-05-05T08:39:50.837Z,29.61
2023-05-05T08:42:29.077Z,30.12
2023-05-05T08:45:02.363Z,30.80
2023-05-05T08:47:28.839Z,31.11
2023-05-05T08:49:56.734Z,31.36
2023-05-05T08:52:24.351Z,31.53
2023-05-05T08:54:55.231Z,31.78
2023-05-05T08:57:32.375Z,32.06
2023-05-05T09:00:00.483Z,31.80
2023-05-05T09:02:29.293Z,31.38
2023-05-05T09:04:56.218Z,31.23
2023-05-05T09:07:23.013Z,31.08
2023-05-05T09:09:49.881Z,31.12
2023-05-05T09:12:16.225Z,31.06
2023-05-05T09:14:42.608Z,30.80
2023-05-05T09:17:25.564Z,30.50
2023-05-05T09:20:06.780Z,30.20
2023-05-05T09:22:35.726Z,30.16
2023-05-05T09:25:02.354Z,30.12
2023-05-05T09:27:28.722Z,30.05
2023-05-05T09:29:55.389Z,29.81
2023-05-05T09:32:22.394Z,29.50
2023-05-05T09:35:01.351Z,29.34
2023-05-05T09:37:31.372Z,29.03
2023-05-05T09:39:59.813Z,28.71
2023-05-05T09:42:26.777Z,28.33
2023-05-05T09:44:53.749Z,28.02
2023-05-05T09:47:29.427Z,27.69
2023-05-05T09:49:57.623Z,27.30
2023-05-05T09:52:24.342Z,26.91
2023-05-05T09:54:55.344Z,26.47
2023-05-05T09:57:28.778Z,26.14
2023-05-05T09:59:56.715Z,25.82
2023-05-05T10:02:30.804Z,25.67
2023-05-05T10:05:04.513Z,25.45
2023-05-05T10:07:30.864Z,25.24
2023-05-05T10:09:57.200Z,25.11
2023-05-05T10:12:26.220Z,25.13
2023-05-05T10:14:55.292Z,25.05
2023-05-05T10:17:25.632Z,25.02
2023-05-05T10:19:56.878Z,24.88
2023-05-05T10:22:24.976Z,24.71
2023-05-05T10:24:57.576Z,24.45
2023-05-05T10:27:26.802Z,24.20
2023-05-05T10:30:07.776Z,24.05
2023-05-05T10:33:18.234Z,23.96
2023-05-05T10:35:52.042Z,23.81
2023-05-05T10:38:20.640Z,23.82
2023-05-05T10:40:48.005Z,23.79
2023-05-05T10:43:14.915Z,23.80
2023-05-05T10:45:42.552Z,23.82
2023-05-05T10:48:32.279Z,23.85
2023-05-05T10:51:38.633Z,23.90
2023-05-05T10:54:16.976Z,23.97
2023-05-05T10:56:43.567Z,23.94
2023-05-05T10:59:38.342Z,23.84
2023-05-05T11:02:24.941Z,23.64
2023-05-05T11:05:13.531Z,23.59
2023-05-05T11:07:39.968Z,23.56
2023-05-05T11:10:12.119Z,23.41
2023-05-05T11:12:53.970Z,23.27
2023-05-05T11:15:26.225Z,23.21
2023-05-05T11:18:00.334Z,23.32
2023-05-05T11:20:35.856Z,23.55
2023-05-05T11:23:02.241Z,23.60
2023-05-05T11:25:34.638Z,23.26
2023-05-05T11:28:21.469Z,22.89
2023-05-05T11:30:57.858Z,22.65
2023-05-05T11:33:34.961Z,21.88
2023-05-05T11:36:09.144Z,21.34
2023-05-05T11:38:44.469Z,20.41
2023-05-05T11:41:32.014Z,19.44
2023-05-05T11:44:11.548Z,18.83
2023-05-05T11:46:40.983Z,18.35
2023-05-05T11:49:07.734Z,18.00
2023-05-05T11:51:34.229Z,17.51
2023-05-05T11:54:00.664Z,16.90
2023-05-05T11:56:26.973Z,16.03
2023-05-05T11:59:10.570Z,15.65
2023-05-05T12:01:40.726Z,15.54
2023-05-05T12:04:11.298Z,15.48
2023-05-05T12:06:38.005Z,15.33
2023-05-05T12:09:04.428Z,15.20
2023-05-05T12:11:30.781Z,15.28
2023-05-05T12:14:10.290Z,15.28
2023-05-05T12:16:36.920Z,15.25
2023-05-05T12:19:04.929Z,15.16
2023-05-05T12:21:31.862Z,15.12
2023-05-05T12:23:59.289Z,15.05
2023-05-05T12:26:31.187Z,14.98
2023-05-05T12:28:59.033Z,14.83
2023-05-05T12:31:41.980Z,14.79
2023-05-05T12:34:10.092Z,14.81
2023-05-05T12:36:36.998Z,14.78
2023-05-05T12:39:06.516Z,14.77
2023-05-05T12:41:33.844Z,14.75
2023-05-05T12:44:01.755Z,14.75
2023-05-05T12:46:28.600Z,14.77
2023-05-05T12:49:05.524Z,14.80
2023-05-05T12:51:33.577Z,14.74
2023-05-05T12:54:08.506Z,14.72
2023-05-05T12:56:34.811Z,14.82
2023-05-05T12:59:12.476Z,14.80
2023-05-05T13:01:48.612Z,14.85
2023-05-05T13:04:15.087Z,14.96
2023-05-05T13:06:43.535Z,14.92
2023-05-05T13:09:22.542Z,14.91
2023-05-05T13:11:48.848Z,14.99
2023-05-05T13:14:15.186Z,14.92
2023-05-05T13:16:41.573Z,14.86
2023-05-05T13:19:07.882Z,14.79
2023-05-05T13:21:34.237Z,14.80
2023-05-05T13:24:12.483Z,14.75
2023-05-05T13:26:47.580Z,14.72
2023-05-05T13:29:13.986Z,14.66
2023-05-05T13:31:40.388Z,14.70
2023-05-05T13:34:06.720Z,14.60
2023-05-05T13:36:33.072Z,14.63
2023-05-05T13:38:59.436Z,14.55
2023-05-05T13:41:25.902Z,14.45
2023-05-05T13:43:52.261Z,14.40
2023-05-05T13:46:20.367Z,14.41
2023-05-05T13:48:46.840Z,14.45
2023-05-05T13:51:13.167Z,14.43
2023-05-05T13:53:39.510Z,14.47
2023-05-05T13:56:05.988Z,14.46
2023-05-05T13:58:32.311Z,14.40
2023-05-05T14:00:58.709Z,14.31
2023-05-05T14:03:25.146Z,14.33
2023-05-05T14:05:51.506Z,14.41
2023-05-05T14:08:17.885Z,14.47
2023-05-05T14:10:45.423Z,14.51
2023-05-05T14:13:13.625Z,14.67
2023-05-05T14:15:40.045Z,14.80
2023-05-05T14:18:06.565Z,14.93
2023-05-05T14:20:33.087Z,15.15
2023-05-05T14:22:59.560Z,15.23
2023-05-05T14:25:26.004Z,15.36
2023-05-05T14:27:54.842Z,15.48
2023-05-05T14:30:21.226Z,15.62
2023-05-05T14:32:47.557Z,15.79
2023-05-05T14:35:13.945Z,15.88
2023-05-05T14:37:40.254Z,15.97
2023-05-05T14:40:07.373Z,16.12
2023-05-05T14:42:33.814Z,16.31
2023-05-05T14:45:00.185Z,16.48
2023-05-05T14:47:26.495Z,16.65
2023-05-05T14:49:52.798Z,16.75
2023-05-05T14:52:19.090Z,16.86
2023-05-05T14:54:45.445Z,16.97
2023-05-05T14:57:11.918Z,16.99
2023-05-05T14:59:38.252Z,17.01
2023-05-05T15:02:04.672Z,16.94
2023-05-05T15:04:31.080Z,16.87
2023-05-05T15:06:57.404Z,16.78
2023-05-05T15:09:23.715Z,16.74
2023-05-05T15:11:50.103Z,16.73
2023-05-05T15:14:16.404Z,16.81
2023-05-05T15:16:42.753Z,16.83
2023-05-05T15:19:09.127Z,16.90
2023-05-05T15:21:35.481Z,16.89
2023-05-05T15:24:01.802Z,16.84
2023-05-05T15:26:28.164Z,16.83
2023-05-05T15:28:54.476Z,16.88
2023-05-05T15:31:20.822Z,16.97
2023-05-05T15:33:47.145Z,17.12
2023-05-05T15:36:13.554Z,17.15
2023-05-05T15:38:41.434Z,17.15
2023-05-05T15:41:07.765Z,17.07
2023-05-05T15:43:34.545Z,16.88
2023-05-05T15:46:00.847Z,16.79
2023-05-05T15:48:27.302Z,16.72
2023-05-05T15:50:53.647Z,16.65
2023-05-05T15:53:20.035Z,16.66
2023-05-05T15:55:46.338Z,16.58
2023-05-05T15:58:12.735Z,16.56
2023-05-05T16:00:39.345Z,16.54
2023-05-05T16:03:05.751Z,16.52
2023-05-05T16:05:32.263Z,16.61
2023-05-05T16:07:58.605Z,16.74
2023-05-05T16:10:24.944Z,16.80
2023-05-05T16:12:51.262Z,16.88
2023-05-05T16:15:17.780Z,16.94
2023-05-05T16:17:44.198Z,16.99
2023-05-05T16:20:11.232Z,16.95
2023-05-05T16:22:37.632Z,16.94
2023-05-05T16:25:04.375Z,16.92
2023-05-05T16:27:30.707Z,16.87
2023-05-05T16:29:59.560Z,16.79
2023-05-05T16:32:26.207Z,16.80
2023-05-05T16:34:52.610Z,16.79
2023-05-05T16:37:18.943Z,16.92
2023-05-05T16:39:45.300Z,16.90
2023-05-05T16:42:11.623Z,16.99
2023-05-05T16:44:38.257Z,16.93
2023-05-05T16:47:04.614Z,16.99
2023-05-05T16:49:31.044Z,16.93
2023-05-05T16:51:57.440Z,16.99
2023-05-05T16:54:23.796Z,16.90
2023-05-05T16:56:50.127Z,16.83
2023-05-05T16:59:16.474Z,16.68
2023-05-05T17:01:42.843Z,16.46
2023-05-05T17:04:09.188Z,16.34
2023-05-05T17:06:35.510Z,16.17
2023-05-05T17:09:01.976Z,16.08
2023-05-05T17:11:28.297Z,15.96
2023-05-05T17:13:54.700Z,15.99
2023-05-05T17:16:21.022Z,15.93
2023-05-05T17:18:47.433Z,15.88
2023-05-05T17:21:13.779Z,15.94
2023-05-05T17:23:40.082Z,15.83
2023-05-05T17:26:06.416Z,15.83
2023-05-05T17:28:32.771Z,15.91
2023-05-05T17:30:59.086Z,15.99
2023-05-05T17:33:25.644Z,16.02
2023-05-05T17:35:51.981Z,16.11
2023-05-05T17:38:18.352Z,16.19
2023-05-05T17:40:44.817Z,16.28
2023-05-05T17:43:11.130Z,16.25
2023-05-05T17:45:37.503Z,16.34
2023-05-05T17:48:04.206Z,16.34
2023-05-05T17:50:30.611Z,16.34
2023-05-05T17:52:56.918Z,16.35
2023-05-05T17:55:23.222Z,16.33
2023-05-05T17:57:49.552Z,16.30
2023-05-05T18:00:16.253Z,16.26
2023-05-05T18:02:42.764Z,16.14
2023-05-05T18:05:09.671Z,16.01
2023-05-05T18:07:36.189Z,15.97
2023-05-05T18:10:02.506Z,15.91
2023-05-05T18:12:28.840Z,15.85
2023-05-05T18:14:55.245Z,15.82
2023-05-05T18:17:21.617Z,15.84
2023-05-05T18:19:49.262Z,15.88
2023-05-05T18:22:15.732Z,15.83
2023-05-05T18:24:42.052Z,15.78
2023-05-05T18:27:08.470Z,15.84
2023-05-05T18:29:35.595Z,15.87
2023-05-05T18:32:02.121Z,15.82
2023-05-05T18:34:28.495Z,15.74
2023-05-05T18:36:54.929Z,15.65
2023-05-05T18:39:21.263Z,15.54
2023-05-05T18:41:47.612Z,15.40
2023-05-05T18:44:13.981Z,15.35
2023-05-05T18:46:40.503Z,15.20
2023-05-05T18:49:06.883Z,15.15
2023-05-05T18:51:33.277Z,15.07
2023-05-05T18:53:59.969Z,15.01
2023-05-05T18:56:26.878Z,14.85
2023-05-05T18:58:53.237Z,14.68
2023-05-05T19:01:19.634Z,14.56
2023-05-05T19:03:46.978Z,14.47
2023-05-05T19:06:13.743Z,14.30
2023-05-05T19:08:40.181Z,14.20
2023-05-05T19:11:06.508Z,14.12
2023-05-05T19:13:32.810Z,14.01
2023-05-05T19:15:59.283Z,13.90
2023-05-05T19:18:25.632Z,13.82
2023-05-05T19:20:52.151Z,13.72
2023-05-05T19:23:18.609Z,13.61
2023-05-05T19:25:44.989Z,13.53
2023-05-05T19:28:11.368Z,13.44
2023-05-05T19:30:37.814Z,13.30
2023-05-05T19:33:04.292Z,13.23
2023-05-05T19:35:30.779Z,13.10
2023-05-05T19:37:57.120Z,13.08
2023-05-05T19:40:23.526Z,13.04
2023-05-05T19:42:49.881Z,12.88
2023-05-05T19:45:16.315Z,12.85
2023-05-05T19:47:42.649Z,12.69
2023-05-05T19:50:09.957Z,12.57
2023-05-05T19:52:36.519Z,12.50
2023-05-05T19:55:02.976Z,12.45
2023-05-05T19:57:29.372Z,12.32
2023-05-05T19:59:55.688Z,12.25
2023-05-05T20:02:22.094Z,12.11
2023-05-05T20:04:48.486Z,12.09
2023-05-05T20:07:14.787Z,11.97
2023-05-05T20:09:41.115Z,11.93
2023-05-05T20:12:07.757Z,11.90
2023-05-05T20:14:34.120Z,11.80
2023-05-05T20:17:00.475Z,11.74
2023-05-05T20:19:26.843Z,11.67
2023-05-05T20:21:53.172Z,11.65
2023-05-05T20:24:19.589Z,11.52
2023-05-05T20:26:45.897Z,11.49
2023-05-05T20:29:12.219Z,11.45
2023-05-05T20:31:38.614Z,11.35
2023-05-05T20:34:04.960Z,11.40
2023-05-05T20:36:31.319Z,11.32
2023-05-05T20:38:57.684Z,11.32
2023-05-05T20:41:24.044Z,11.25
2023-05-05T20:43:50.359Z,11.24
2023-05-05T20:46:16.741Z,11.18
2023-05-05T20:48:43.271Z,11.12
2023-05-05T20:51:09.677Z,11.07
2023-05-05T20:53:36.054Z,11.02
2023-05-05T20:56:02.380Z,10.95
2023-05-05T20:58:29.759Z,10.96
2023-05-05T21:00:56.124Z,10.92
2023-05-05T21:03:22.523Z,10.77
2023-05-05T21:05:48.895Z,10.83
2023-05-05T21:08:15.442Z,10.76
2023-05-05T21:10:41.802Z,10.73
2023-05-05T21:13:08.118Z,10.61
2023-05-05T21:15:36.947Z,10.60
2023-05-05T21:18:03.728Z,10.56
2023-05-05T21:20:30.054Z,10.49
2023-05-05T21:22:56.570Z,10.53
2023-05-05T21:25:23.295Z,10.49
2023-05-05T21:27:49.614Z,10.49
2023-05-05T21:30:17.152Z,10.47
2023-05-05T21:32:44.099Z,10.50
2023-05-05T21:35:10.539Z,10.52
2023-05-05T21:37:37.993Z,10.46
2023-05-05T21:40:06.067Z,10.43
2023-05-05T21:42:32.469Z,10.39
2023-05-05T21:44:58.781Z,10.38
2023-05-05T21:47:25.157Z,10.37
2023-05-05T21:49:51.568Z,10.31
2023-05-05T21:52:17.940Z,10.34
2023-05-05T21:54:44.634Z,10.26
2023-05-05T21:57:10.965Z,10.23
2023-05-05T21:59:37.360Z,10.26
2023-05-05T22:02:03.737Z,10.17
2023-05-05T22:04:30.117Z,10.12
2023-05-05T22:06:56.585Z,10.16
2023-05-05T22:09:22.911Z,10.16
2023-05-05T22:11:49.330Z,10.17
2023-05-05T22:14:15.664Z,10.13
2023-05-05T22:16:42.526Z,10.21
2023-05-05T22:19:09.008Z,10.21
2023-05-05T22:21:35.375Z,10.28
2023-05-05T22:24:01.721Z,10.24
2023-05-05T22:26:28.043Z,10.24
2023-05-05T22:28:54.345Z,10.20
2023-05-05T22:31:20.692Z,10.16
2023-05-05T22:33:47.044Z,10.17
2023-05-05T22:36:13.380Z,10.14
2023-05-05T22:38:39.724Z,10.13
2023-05-05T22:41:06.613Z,10.09
2023-05-05T22:43:32.942Z,10.08
2023-05-05T22:45:59.247Z,10.07
2023-05-05T22:48:25.580Z,9.99
2023-05-05T22:50:51.883Z,9.94
2023-05-05T22:53:18.218Z,9.92
2023-05-05T22:55:44.524Z,9.85
2023-05-05T22:58:10.863Z,9.75
2023-05-05T23:00:37.270Z,9.74
2023-05-05T23:03:04.006Z,9.70
2023-05-05T23:05:30.358Z,9.64
2023-05-05T23:07:56.643Z,9.65
2023-05-05T23:10:22.997Z,9.64
2023-05-05T23:12:49.446Z,9.59
2023-05-05T23:15:15.854Z,9.55
2023-05-05T23:17:42.223Z,9.54
2023-05-05T23:20:09.192Z,9.53
2023-05-05T23:22:35.530Z,9.51
2023-05-05T23:25:01.813Z,9.54
2023-05-05T23:27:28.135Z,9.55
2023-05-05T23:29:54.491Z,9.48
2023-05-05T23:32:20.842Z,9.52
2023-05-05T23:34:47.254Z,9.52
2023-05-05T23:37:13.852Z,9.50
2023-05-05T23:39:40.679Z,9.49
2023-05-05T23:42:07.025Z,9.49
2023-05-05T23:44:33.367Z,9.57
2023-05-05T23:46:59.730Z,9.61
2023-05-05T23:49:26.049Z,9.62
2023-05-05T23:51:52.725Z,9.63
2023-05-05T23:54:19.036Z,9.67
2023-05-05T23:56:45.772Z,9.68
2023-05-05T23:59:12.138Z,9.65
